Südanflug-Wetter

Südanflüge sind sowohl am Euroairport Basel-Mulhouse-Freiburg als auch am Flughafen Unique Zürich ein Thema für die Anwohner. In Basel hängen Südanflüge von den Windverhältnissen ab. Für den Euroairport Basel-Mulhouse-Freiburg bereitet MeteoNews deshalb aktuelle Winddaten auf, die direkt auf der Homepage des Flughafens eingebunden werden. Angaben zum Flughafen Zürich finden Sie hier.

In Zürich sind Südanflüge auf die Piste 34 möglich, wenn die horizontale Sichtweite mindestens 750 m beträgt und die Wolkenuntergrenze im Anflugsektor nicht tiefer als 300 Fuss (knapp 100 m) liegt (diese Werte gelten seit dem 1. November 2004).

Prognose für Südanflüge

Am Dienstag sind Südanflüge möglich.
(Prognose ohne Gewähr. Die Vorhersage wird mehrmals täglich aktualisiert. Verantwortlicher Meteorologe: Klaus Marquardt, 11.12.2018 05:42)

Analyse der letzten METAR-Messungen

Unser Tool wertet die letzten 20 offiziellen Wettermeldungen (METAR) des Flughafens Zürich aus und entscheidet aufgrund der beiden Werte für Sichtweite und Ceiling (Hauptwolkenuntergrenze), ob Südanflüge nach obiger Definition möglich wären. Allerdings repräsentiert der Wert für die Wolkenuntergrenze in der METAR-Meldung nicht die Bewölkung im Anflugsektor sondern generell um den Flughafen. Da über die Bewölkung im Anflugsektor kurzfristig aufgrund von Beobachtungen des Towers und von Piloten entschieden wird, kann die Angabe unseres Tools in gewissen Fällen von den realen Entscheiden der Flugsicherung abweichen.

Südanflüge Datum Uhrzeit Sichtweite Ceiling Vollständige METAR-Meldung
möglich 2018-12-11 06:50:00 > 10 km LSZH 110550Z VRB01KT 9999 FEW012 SCT048 M00/M01 Q1024 R88/29 NOSIG
möglich 2018-12-11 06:20:00 > 10 km LSZH 110520Z 14002KT 9999 FEW035 SCT046 M01/M01 Q1024 R88/29 NOSIG
möglich 2018-12-11 05:50:00 > 10 km LSZH 110450Z VRB02KT 9999 SCT044 M00/M01 Q1024 R88/29 NOSIG
möglich 2018-12-11 05:20:00 > 10 km LSZH 110420Z VRB01KT 9999 FEW012 SCT044 M00/M01 Q1024 R88/29 NOSIG
möglich 2018-12-11 04:50:00 > 10 km LSZH 110350Z 12003KT 9999 FEW013 SCT043 M00/M01 Q1024 NOSIG
möglich 2018-12-11 04:20:00 > 10 km LSZH 110320Z 12003KT 9999 FEW041 M00/M01 Q1024 NOSIG
möglich 2018-12-11 03:50:00 > 10 km LSZH 110250Z VRB03KT 9999 FEW010 00/M00 Q1024 NOSIG
möglich 2018-12-11 03:20:00 > 10 km 1400 m LSZH 110220Z 16003KT 9999 FEW040 BKN046 M00/M01 Q1024 NOSIG
möglich 2018-12-11 02:50:00 > 10 km LSZH 110150Z VRB02KT 9999 FEW012 00/M01 Q1024 NOSIG
möglich 2018-12-11 02:20:00 > 10 km LSZH 110120Z 06003KT CAVOK 01/00 Q1024 NOSIG
möglich 2018-12-11 01:50:00 > 10 km LSZH 110050Z VRB03KT 9999 FEW040 01/00 Q1023 NOSIG
möglich 2018-12-11 00:50:00 1800 m 300 m LSZH 102350Z 31007KT 270V340 1800 SN FEW004 BKN010 01/00 Q1024 BECMG 3000
möglich 2018-12-11 00:20:00 8000 m 640 m LSZH 102320Z 33004KT 290V350 8000 -SHRA FEW012 BKN021 03/01 Q1024 TEMPO SHRA
möglich 2018-12-10 23:50:00 > 10 km 1830 m LSZH 102250Z VRB02KT 9999 FEW045 BKN060 03/01 Q1024 NOSIG
möglich 2018-12-10 23:20:00 > 10 km LSZH 102220Z VRB02KT 9999 FEW060 03/01 Q1024 NOSIG
möglich 2018-12-10 22:50:00 > 10 km LSZH 102150Z 24006KT 9999 FEW045 03/01 Q1024 NOSIG
möglich 2018-12-10 22:20:00 > 10 km 1890 m LSZH 102120Z 24007KT 9999 FEW025 SCT055 BKN062 04/02 Q1024 NOSIG
möglich 2018-12-10 21:50:00 > 10 km 1890 m LSZH 102050Z 19004KT 9999 FEW025 SCT055 BKN062 03/02 Q1024 NOSIG
möglich 2018-12-10 21:20:00 > 10 km 1980 m LSZH 102020Z 18004KT 9999 FEW025 SCT055 BKN065 03/02 Q1024 NOSIG
möglich 2018-12-10 20:50:00 > 10 km 1830 m LSZH 101950Z 23004KT 180V270 9999 FEW025 SCT052 BKN060 04/02 Q1024 NOSIG